Weather History for KHFF - February, 2014

Change the Weather History Date:

Wednesday, February 12, 2014

  Actual Average Record
Temperature  
Mean Temperature 26 °F -  
Max Temperature 30 °F 55 °F 68 °F (2009)
Min Temperature 23 °F 34 °F 21 °F (2012)
Degree Days  
Heating Degree Days 38    
Moisture  
Dew Point 24 °F    
Average Humidity 92    
Maximum Humidity 100    
Minimum Humidity 69    
Precipitation  
Precipitation 0.08 in - - ()
Sea Level Pressure  
Sea Level Pressure 30.10 in    
Wind  
Wind Speed 11 mph (NNE)    
Max Wind Speed 22 mph    
Max Gust Speed 28 mph    
Visibility 3 miles    
Events Rain , Snow    
Averages and records for this station are not official NWS values.
T = Trace of Precipitation, MM = Missing Value Source: NWS Daily Summary

Daily Weather History Graph

Daily Weather History Graph

Search for Another Location

Airport or City:

Trip Planner

Search our weather history database for the weather conditions in past years. The results will help you decide how hot, cold, wet, or windy it might be!

Date:

Astronomy

Feb. 12, 2014 Rise Set
Actual Time 7:07 AM EST 5:57 PM EST
Civil Twilight 6:41 AM EST 6:23 PM EST
Nautical Twilight 6:11 AM EST 6:53 PM EST
Astronomical Twilight 5:41 AM EST 7:23 PM EST
Moon 4:11 PM EST (2/12) 5:20 AM EST (2/12)
Length of Visible Light 11h 42m
Length of Day
10h 50m
Waxing Gibbous, 95% of the Moon is Illuminated
Feb 12
Waxing Gibbous
Feb 14
Full
Feb 22
Last Quarter
Mar 1
New
Mar 8
First Quarter

Hourly Weather History & Observations

Time (EST) Temp. Windchill Dew Point Humidity Pressure Visibility Wind Dir Wind Speed Gust Speed Precip Events Conditions
12:56 AM 28.6 °F 21.5 °F 24.4 °F 84% 30.39 in 11.0 mi NE 6.9 mph - N/A   Overcast
1:56 AM 28.2 °F 22.0 °F 23.0 °F 81% 30.38 in 12.0 mi NE 5.8 mph - N/A   Mostly Cloudy
2:56 AM 27.9 °F 20.6 °F 22.6 °F 81% 30.39 in 12.0 mi NNE 6.9 mph - N/A   Scattered Clouds
3:56 AM 27.5 °F 18.0 °F 21.2 °F 77% 30.38 in 12.0 mi NNE 10.4 mph - N/A   Mostly Cloudy
4:56 AM 27.0 °F 18.7 °F 19.4 °F 73% 30.38 in 12.0 mi NE 8.1 mph - N/A   Overcast
5:56 AM 26.6 °F 17.5 °F 19.6 °F 75% 30.38 in 12.0 mi NE 9.2 mph - N/A   Mostly Cloudy
6:56 AM 26.4 °F 18.0 °F 18.0 °F 70% 30.38 in 12.0 mi NE 8.1 mph - N/A   Overcast
7:56 AM 26.4 °F 17.3 °F 17.6 °F 69% 30.40 in 12.0 mi NE 9.2 mph - 0.01 in   Overcast
8:56 AM 26.6 °F 17.5 °F 18.3 °F 71% 30.41 in 12.0 mi NE 9.2 mph 15.0 mph N/A   Overcast
9:23 AM 26.6 °F 17.5 °F 17.6 °F 69% 30.39 in 12.0 mi NE 9.2 mph - N/A Snow Light Snow
9:53 AM 26.6 °F 16.2 °F 19.4 °F 74% 30.37 in 8.0 mi NNE 11.5 mph - N/A Snow Light Snow
9:56 AM 26.4 °F 15.5 °F 18.0 °F 70% 30.40 in 5.0 mi NNE 12.7 mph - N/A Snow Light Snow
10:06 AM 26.6 °F 17.5 °F 19.4 °F 74% 30.36 in 2.8 mi NE 9.2 mph - N/A Snow Light Snow
10:21 AM 24.8 °F 13.4 °F 19.4 °F 80% 30.35 in 1.6 mi NE 12.7 mph - N/A Snow Light Snow
10:26 AM 24.8 °F 13.4 °F 21.2 °F 86% 30.35 in 1.0 mi NNE 12.7 mph 21.9 mph N/A Snow Light Snow
10:31 AM 24.8 °F 12.4 °F 21.2 °F 86% 30.35 in 0.9 mi NNE 15.0 mph 21.9 mph N/A Snow Light Snow
10:46 AM 23.0 °F 11.1 °F 21.2 °F 93% 30.36 in 0.6 mi NE 12.7 mph - N/A Snow Snow
10:56 AM 23.7 °F 13.3 °F 21.7 °F 92% 30.40 in 0.4 mi NE 10.4 mph 20.7 mph N/A Snow Snow
11:01 AM 23.0 °F 12.4 °F 21.2 °F 93% 30.36 in 0.3 mi NNE 10.4 mph 19.6 mph N/A Snow Heavy Snow
11:23 AM 23.0 °F 12.4 °F 23.0 °F 100% 30.34 in 0.3 mi NNE 10.4 mph - N/A Snow Heavy Snow
11:33 AM 23.0 °F 12.4 °F 23.0 °F 100% 30.34 in 0.2 mi NE 10.4 mph - N/A Snow Heavy Snow
11:48 AM 23.0 °F 11.1 °F 23.0 °F 100% 30.32 in 0.3 mi NE 12.7 mph 18.4 mph N/A Snow Heavy Snow
11:56 AM 23.4 °F 12.2 °F 22.3 °F 96% 30.35 in 0.4 mi NE 11.5 mph - N/A Snow Heavy Snow
12:01 PM 23.0 °F 11.1 °F 23.0 °F 100% 30.32 in 0.4 mi NE 12.7 mph - N/A Snow Heavy Snow
12:16 PM 23.0 °F 12.4 °F 21.2 °F 93% 30.31 in 0.9 mi NE 10.4 mph 19.6 mph N/A Snow Snow
12:21 PM 23.0 °F 11.7 °F 21.2 °F 93% 30.31 in 1.0 mi NE 11.5 mph - N/A Snow Snow
12:26 PM 23.0 °F 10.6 °F 21.2 °F 93% 30.30 in 0.8 mi NE 13.8 mph 19.6 mph N/A Snow Light Snow
12:56 PM 23.7 °F 10.5 °F 22.3 °F 94% 30.28 in 1.2 mi NNE 16.1 mph 20.7 mph N/A Snow Light Snow
1:01 PM 23.0 °F 10.1 °F 21.2 °F 93% 30.25 in 2.2 mi NNE 15.0 mph - N/A Snow Light Snow
1:11 PM 23.0 °F 10.1 °F 21.2 °F 93% 30.23 in 3.0 mi NNE 15.0 mph - N/A Snow Light Snow
1:16 PM 23.0 °F 10.6 °F 21.2 °F 93% 30.23 in 4.0 mi NNE 13.8 mph - N/A Snow Light Snow
1:21 PM 24.8 °F 13.4 °F 23.0 °F 93% 30.23 in 4.0 mi NNE 12.7 mph - N/A Snow Light Snow
1:26 PM 24.8 °F 13.4 °F 23.0 °F 93% 30.23 in 5.0 mi NNE 12.7 mph - N/A Snow Light Snow
1:41 PM 23.0 °F 8.7 °F 21.2 °F 93% 30.22 in 2.8 mi NNE 18.4 mph 23.0 mph N/A Snow Light Snow
1:46 PM 23.0 °F 9.6 °F 21.2 °F 93% 30.21 in 3.0 mi NNE 16.1 mph 23.0 mph N/A Snow Light Snow
1:56 PM 24.1 °F 10.1 °F 22.5 °F 94% 30.21 in 4.0 mi NNE 18.4 mph 24.2 mph N/A Snow Light Snow
2:11 PM 24.8 °F 12.4 °F 23.0 °F 93% 30.18 in 4.0 mi NNE 15.0 mph 26.5 mph N/A Snow Light Snow
2:36 PM 24.8 °F 13.4 °F 23.0 °F 93% 30.17 in 3.0 mi NNE 12.7 mph 21.9 mph N/A Snow Light Snow
2:56 PM 25.2 °F 12.9 °F 23.2 °F 92% 30.16 in 4.0 mi NNE 15.0 mph 27.6 mph N/A Snow Light Snow
3:01 PM 24.8 °F 11.1 °F 23.0 °F 93% 30.13 in 2.8 mi NNE 18.4 mph 24.2 mph N/A Snow Light Snow
3:11 PM 24.8 °F 11.1 °F 23.0 °F 93% 30.13 in 1.8 mi North 18.4 mph 27.6 mph N/A Snow Light Snow
3:16 PM 24.8 °F 10.3 °F 23.0 °F 93% 30.12 in 1.6 mi North 20.7 mph 27.6 mph N/A Snow Light Snow
3:21 PM 24.8 °F 11.5 °F 23.0 °F 93% 30.11 in 1.8 mi NNE 17.3 mph 25.3 mph N/A Snow Light Snow
3:26 PM 24.8 °F 10.0 °F 23.0 °F 93% 30.10 in 2.0 mi NNE 21.9 mph 26.5 mph N/A Snow Light Snow
3:41 PM 24.8 °F 11.1 °F 23.0 °F 93% 30.10 in 3.0 mi NNE 18.4 mph 25.3 mph N/A Snow Light Snow
3:56 PM 24.6 °F 13.8 °F 23.0 °F 94% 30.12 in 3.0 mi NNE 11.5 mph 21.9 mph N/A Snow Light Snow
4:11 PM 24.8 °F 13.4 °F 23.0 °F 93% 30.10 in 2.5 mi NNE 12.7 mph 18.4 mph N/A Snow Light Snow
4:26 PM 24.8 °F 12.4 °F 23.0 °F 93% 30.07 in 1.6 mi NNE 15.0 mph - N/A Snow Light Snow
4:31 PM 24.8 °F 11.5 °F 23.0 °F 93% 30.06 in 1.4 mi NE 17.3 mph 24.2 mph N/A Snow Light Snow
4:41 PM 24.8 °F 13.4 °F 24.8 °F 100% 30.07 in 1.6 mi NNE 12.7 mph 21.9 mph N/A Snow Light Snow
4:46 PM 24.8 °F 12.4 °F 24.8 °F 100% 30.06 in 1.8 mi NNE 15.0 mph 19.6 mph N/A Snow Light Snow
4:56 PM 25.5 °F 12.0 °F 24.4 °F 96% 30.07 in 1.5 mi NNE 18.4 mph 23.0 mph N/A Snow Light Snow
5:01 PM 24.8 °F 12.4 °F 24.8 °F 100% 30.05 in 1.2 mi NNE 15.0 mph 21.9 mph N/A Snow Light Snow
5:16 PM 26.6 °F 14.7 °F 24.8 °F 93% 30.03 in 1.1 mi NNE 15.0 mph 24.2 mph N/A Snow Light Snow
5:26 PM 26.6 °F 15.7 °F 24.8 °F 93% 30.04 in 1.2 mi NNE 12.7 mph 24.2 mph N/A Snow Light Snow
5:31 PM 26.6 °F 13.4 °F 24.8 °F 93% 30.03 in 1.1 mi NNE 18.4 mph 23.0 mph N/A Snow Light Snow
5:56 PM 26.2 °F 15.2 °F 25.3 °F 96% 30.02 in 1.1 mi NE 12.7 mph 23.0 mph N/A Snow Light Snow
6:01 PM 26.6 °F 14.7 °F 24.8 °F 93% 30.00 in 1.0 mi NE 15.0 mph 23.0 mph N/A Snow Light Snow
6:06 PM 26.6 °F 15.2 °F 24.8 °F 93% 30.00 in 0.9 mi NNE 13.8 mph 21.9 mph N/A Snow Light Snow
6:11 PM 26.6 °F 15.2 °F 24.8 °F 93% 30.01 in 1.5 mi NNE 13.8 mph 21.9 mph N/A Snow Light Snow
6:16 PM 26.6 °F 15.2 °F 24.8 °F 93% 30.00 in 1.2 mi NNE 13.8 mph 21.9 mph N/A Snow Light Snow
6:26 PM 26.6 °F 15.7 °F 24.8 °F 93% 30.00 in 1.8 mi NNE 12.7 mph 19.6 mph N/A Snow Light Snow
6:36 PM 26.6 °F 15.2 °F 24.8 °F 93% 30.00 in 1.6 mi NNE 13.8 mph - N/A Snow Light Snow
6:41 PM 26.6 °F 15.2 °F 24.8 °F 93% 30.00 in 1.8 mi NNE 13.8 mph - N/A Snow Light Snow
6:51 PM 26.6 °F 16.8 °F 24.8 °F 93% 30.00 in 1.6 mi NNE 10.4 mph 17.3 mph N/A Snow Light Snow
6:56 PM 26.6 °F 15.7 °F 25.7 °F 96% 30.02 in 1.5 mi NNE 12.7 mph 18.4 mph N/A Snow Light Snow
7:01 PM 26.6 °F 16.2 °F 24.8 °F 93% 30.00 in 1.4 mi NE 11.5 mph - N/A Snow Light Snow
7:21 PM 26.6 °F 17.5 °F 26.6 °F 100% 29.98 in 1.5 mi NE 9.2 mph - N/A Snow Snow
7:31 PM 26.6 °F 15.2 °F 26.6 °F 100% 29.98 in 1.4 mi NNE 13.8 mph 19.6 mph N/A Snow Light Snow
7:36 PM 26.6 °F 16.2 °F 26.6 °F 100% 29.97 in 1.6 mi NNE 11.5 mph 19.6 mph N/A Snow Light Snow
7:41 PM 26.6 °F 16.2 °F 26.6 °F 100% 29.97 in 2.0 mi NNE 11.5 mph 19.6 mph N/A Snow Light Snow
7:46 PM 26.6 °F 17.5 °F 26.6 °F 100% 29.97 in 1.9 mi NNE 9.2 mph 19.6 mph N/A Snow Light Snow
7:51 PM 26.6 °F 19.1 °F 26.6 °F 100% 29.96 in 1.5 mi North 6.9 mph - N/A Snow Light Snow
7:56 PM 27.1 °F 19.7 °F 26.8 °F 99% 29.98 in 1.4 mi NNE 6.9 mph - N/A Snow Light Snow
8:01 PM 26.6 °F 18.2 °F 26.6 °F 100% 29.96 in 1.8 mi NNE 8.1 mph - N/A Snow Light Snow
8:06 PM 26.6 °F 16.8 °F 26.6 °F 100% 29.96 in 2.0 mi NNE 10.4 mph - N/A Snow Light Snow
8:31 PM 28.4 °F 21.2 °F 28.4 °F 100% 29.95 in 1.9 mi NNE 6.9 mph - N/A Snow Light Snow
8:36 PM 28.4 °F 22.2 °F 28.4 °F 100% 29.95 in 2.2 mi North 5.8 mph - N/A Snow Light Snow
8:38 PM 28.4 °F 22.2 °F 28.4 °F 100% 29.96 in 2.5 mi Variable 5.8 mph - N/A Snow Light Snow
8:43 PM 28.4 °F 21.2 °F 28.4 °F 100% 29.96 in 3.0 mi NNW 6.9 mph - N/A Snow Light Snow
8:48 PM 28.4 °F 20.4 °F 28.4 °F 100% 29.94 in 2.8 mi North 8.1 mph - N/A Snow Light Snow
8:56 PM 28.6 °F 18.7 °F 28.2 °F 99% 29.93 in 2.0 mi NNE 11.5 mph 18.4 mph N/A Snow Light Snow
9:06 PM 28.4 °F 18.5 °F 28.4 °F 100% 29.91 in 3.0 mi NNE 11.5 mph - N/A Snow Light Snow
9:10 PM 28.4 °F 19.1 °F 28.4 °F 100% 29.90 in 3.0 mi NNE 10.4 mph - N/A Rain , Snow Light Freezing Rain
9:30 PM 28.4 °F 17.0 °F 28.4 °F 100% 29.87 in 4.0 mi NNE 15.0 mph 23.0 mph N/A Snow Light Snow
9:35 PM 30.2 °F 19.3 °F 28.4 °F 93% 29.87 in 2.8 mi NNE 15.0 mph - N/A Snow Light Snow
9:40 PM 30.2 °F 19.8 °F 28.4 °F 93% 29.87 in 3.0 mi NNE 13.8 mph - N/A Snow Light Snow
9:54 PM 30.2 °F 19.8 °F 28.4 °F 93% 29.86 in 5.0 mi NNE 13.8 mph - N/A Rain Light Freezing Rain
9:56 PM 29.7 °F 18.6 °F 28.9 °F 97% 29.88 in 5.0 mi NE 15.0 mph - 0.02 in Rain Light Freezing Rain
10:24 PM 30.2 °F 20.2 °F 28.4 °F 93% 29.84 in 4.0 mi NNE 12.7 mph - N/A   Light Ice Pellets
10:27 PM 30.2 °F 21.3 °F 28.4 °F 93% 29.83 in 4.0 mi North 10.4 mph - N/A Rain , Snow Light Freezing Rain
10:31 PM 30.2 °F 21.3 °F 28.4 °F 93% 29.84 in 4.0 mi North 10.4 mph - N/A Rain , Snow Light Freezing Rain
10:38 PM 30.2 °F 20.8 °F 28.4 °F 93% 29.83 in 4.0 mi NNE 11.5 mph - N/A Rain , Snow Light Freezing Rain
10:51 PM 30.2 °F 21.9 °F 28.4 °F 93% 29.82 in 4.0 mi North 9.2 mph - N/A Snow Light Snow
10:56 PM 29.5 °F 19.9 °F 28.8 °F 97% 29.84 in 3.0 mi North 11.5 mph - 0.03 in Snow Light Snow
10:59 PM 30.2 °F 24.3 °F 28.4 °F 93% 29.82 in 4.0 mi North 5.8 mph - N/A Rain Light Freezing Rain
11:14 PM 30.2 °F 21.3 °F 28.4 °F 93% 29.80 in 5.0 mi North 10.4 mph - N/A Rain Light Freezing Rain
11:27 PM 30.2 °F 20.8 °F 28.4 °F 93% 29.78 in 3.0 mi NNE 11.5 mph - N/A   Light Ice Pellets
11:29 PM 30.2 °F 20.8 °F 28.4 °F 93% 29.78 in 3.0 mi North 11.5 mph - N/A Rain , Snow Light Freezing Rain
11:56 PM 29.7 °F 22.0 °F 29.1 °F 98% 29.81 in 7.0 mi North 8.1 mph - 0.02 in Rain Light Freezing Rain